sensor_id;sensor_type;location;lat;lon;timestamp;temperature;humidity
26270;DHT22;15937;50.612;6.656;2023-05-10T00:01:17;13.20;99.90
26270;DHT22;15937;50.612;6.656;2023-05-10T00:05:18;13.30;99.90
26270;DHT22;15937;50.612;6.656;2023-05-10T00:09:20;13.20;99.90
26270;DHT22;15937;50.612;6.656;2023-05-10T00:13:22;13.20;99.90
26270;DHT22;15937;50.612;6.656;2023-05-10T00:17:24;13.10;99.90
26270;DHT22;15937;50.612;6.656;2023-05-10T00:21:25;13.10;99.90
26270;DHT22;15937;50.612;6.656;2023-05-10T00:25:29;13.10;99.90
26270;DHT22;15937;50.612;6.656;2023-05-10T00:29:31;13.10;99.90
26270;DHT22;15937;50.612;6.656;2023-05-10T00:33:33;13.00;99.90
26270;DHT22;15937;50.612;6.656;2023-05-10T00:37:34;13.00;99.90
26270;DHT22;15937;50.612;6.656;2023-05-10T00:41:36;13.00;99.90
26270;DHT22;15937;50.612;6.656;2023-05-10T00:45:40;12.90;99.90
26270;DHT22;15937;50.612;6.656;2023-05-10T00:49:42;12.90;99.90
26270;DHT22;15937;50.612;6.656;2023-05-10T00:53:47;12.80;99.90
26270;DHT22;15937;50.612;6.656;2023-05-10T00:57:49;12.90;99.90
26270;DHT22;15937;50.612;6.656;2023-05-10T01:01:52;12.90;99.90
26270;DHT22;15937;50.612;6.656;2023-05-10T01:05:54;12.90;99.90
26270;DHT22;15937;50.612;6.656;2023-05-10T01:09:56;12.90;99.90
26270;DHT22;15937;50.612;6.656;2023-05-10T01:13:59;13.00;99.90
26270;DHT22;15937;50.612;6.656;2023-05-10T01:18:01;13.00;99.90
26270;DHT22;15937;50.612;6.656;2023-05-10T01:27:13;13.00;99.90
26270;DHT22;15937;50.612;6.656;2023-05-10T01:40:25;13.00;99.90
26270;DHT22;15937;50.612;6.656;2023-05-10T01:44:35;13.00;99.90
26270;DHT22;15937;50.612;6.656;2023-05-10T01:48:47;13.00;99.90
26270;DHT22;15937;50.612;6.656;2023-05-10T01:52:55;13.00;99.90
26270;DHT22;15937;50.612;6.656;2023-05-10T01:57:05;13.00;99.90
26270;DHT22;15937;50.612;6.656;2023-05-10T02:01:08;13.00;99.90
26270;DHT22;15937;50.612;6.656;2023-05-10T02:05:13;13.10;99.90
26270;DHT22;15937;50.612;6.656;2023-05-10T02:09:17;13.00;99.90
26270;DHT22;15937;50.612;6.656;2023-05-10T02:13:21;12.90;99.90
26270;DHT22;15937;50.612;6.656;2023-05-10T02:17:25;12.90;99.90
26270;DHT22;15937;50.612;6.656;2023-05-10T02:21:28;13.00;99.90
26270;DHT22;15937;50.612;6.656;2023-05-10T02:25:32;13.00;99.90
26270;DHT22;15937;50.612;6.656;2023-05-10T02:29:36;12.90;99.90
26270;DHT22;15937;50.612;6.656;2023-05-10T02:33:42;12.90;99.90
26270;DHT22;15937;50.612;6.656;2023-05-10T02:37:46;12.90;99.90
26270;DHT22;15937;50.612;6.656;2023-05-10T02:41:50;12.90;99.90
26270;DHT22;15937;50.612;6.656;2023-05-10T02:45:52;12.90;99.90
26270;DHT22;15937;50.612;6.656;2023-05-10T02:49:57;12.90;99.90
26270;DHT22;15937;50.612;6.656;2023-05-10T02:54:03;12.90;99.90
26270;DHT22;15937;50.612;6.656;2023-05-10T02:58:08;12.90;99.90
26270;DHT22;15937;50.612;6.656;2023-05-10T03:02:10;12.90;99.90
26270;DHT22;15937;50.612;6.656;2023-05-10T03:06:13;12.90;99.90
26270;DHT22;15937;50.612;6.656;2023-05-10T03:10:15;12.80;99.90
26270;DHT22;15937;50.612;6.656;2023-05-10T03:18:54;12.80;99.90
26270;DHT22;15937;50.612;6.656;2023-05-10T03:23:12;12.90;99.90
26270;DHT22;15937;50.612;6.656;2023-05-10T03:27:15;12.80;99.90
26270;DHT22;15937;50.612;6.656;2023-05-10T03:31:17;12.80;99.90
26270;DHT22;15937;50.612;6.656;2023-05-10T03:35:19;12.80;99.90
26270;DHT22;15937;50.612;6.656;2023-05-10T03:39:21;12.90;99.90
26270;DHT22;15937;50.612;6.656;2023-05-10T03:43:23;12.80;99.90
26270;DHT22;15937;50.612;6.656;2023-05-10T03:47:24;12.80;99.90
26270;DHT22;15937;50.612;6.656;2023-05-10T03:51:26;12.80;99.90
26270;DHT22;15937;50.612;6.656;2023-05-10T03:55:29;12.70;99.90
26270;DHT22;15937;50.612;6.656;2023-05-10T03:59:31;12.70;99.90
26270;DHT22;15937;50.612;6.656;2023-05-10T04:03:32;12.70;99.90
26270;DHT22;15937;50.612;6.656;2023-05-10T04:07:34;12.60;99.90
26270;DHT22;15937;50.612;6.656;2023-05-10T04:11:36;12.60;99.90
26270;DHT22;15937;50.612;6.656;2023-05-10T04:15:38;12.60;99.90
26270;DHT22;15937;50.612;6.656;2023-05-10T04:19:39;12.60;99.90
26270;DHT22;15937;50.612;6.656;2023-05-10T04:23:43;12.60;99.90
26270;DHT22;15937;50.612;6.656;2023-05-10T04:27:45;12.60;99.90
26270;DHT22;15937;50.612;6.656;2023-05-10T04:31:47;12.50;99.90
26270;DHT22;15937;50.612;6.656;2023-05-10T04:36:03;12.50;99.90
26270;DHT22;15937;50.612;6.656;2023-05-10T04:40:08;12.50;99.90
26270;DHT22;15937;50.612;6.656;2023-05-10T04:44:10;12.40;99.90
26270;DHT22;15937;50.612;6.656;2023-05-10T04:48:14;12.40;99.90
26270;DHT22;15937;50.612;6.656;2023-05-10T04:52:23;12.40;99.90
26270;DHT22;15937;50.612;6.656;2023-05-10T04:56:34;12.40;99.90
26270;DHT22;15937;50.612;6.656;2023-05-10T05:01:07;12.40;99.90
26270;DHT22;15937;50.612;6.656;2023-05-10T05:05:12;12.40;99.90
26270;DHT22;15937;50.612;6.656;2023-05-10T05:09:16;12.40;99.90
26270;DHT22;15937;50.612;6.656;2023-05-10T05:13:18;12.50;99.90
26270;DHT22;15937;50.612;6.656;2023-05-10T05:17:22;12.50;99.90
26270;DHT22;15937;50.612;6.656;2023-05-10T05:21:26;12.70;99.90
26270;DHT22;15937;50.612;6.656;2023-05-10T05:25:31;12.70;99.90
26270;DHT22;15937;50.612;6.656;2023-05-10T05:29:35;12.70;99.90
26270;DHT22;15937;50.612;6.656;2023-05-10T05:33:37;12.60;99.90
26270;DHT22;15937;50.612;6.656;2023-05-10T05:37:44;12.60;99.90
26270;DHT22;15937;50.612;6.656;2023-05-10T05:41:56;12.50;99.90
26270;DHT22;15937;50.612;6.656;2023-05-10T05:46:02;12.60;99.90
26270;DHT22;15937;50.612;6.656;2023-05-10T05:50:05;12.60;99.90
26270;DHT22;15937;50.612;6.656;2023-05-10T05:54:07;12.80;99.90
26270;DHT22;15937;50.612;6.656;2023-05-10T05:58:26;12.70;99.90
26270;DHT22;15937;50.612;6.656;2023-05-10T06:02:29;12.80;99.90
26270;DHT22;15937;50.612;6.656;2023-05-10T06:06:36;12.90;99.90
26270;DHT22;15937;50.612;6.656;2023-05-10T06:10:38;12.90;99.90
26270;DHT22;15937;50.612;6.656;2023-05-10T06:14:45;12.90;99.90
26270;DHT22;15937;50.612;6.656;2023-05-10T06:18:47;12.90;99.90
26270;DHT22;15937;50.612;6.656;2023-05-10T06:23:03;13.00;99.90
26270;DHT22;15937;50.612;6.656;2023-05-10T06:27:06;13.10;99.90
26270;DHT22;15937;50.612;6.656;2023-05-10T06:31:11;13.10;99.90
26270;DHT22;15937;50.612;6.656;2023-05-10T06:35:17;13.20;99.90
26270;DHT22;15937;50.612;6.656;2023-05-10T06:39:19;13.20;99.90
26270;DHT22;15937;50.612;6.656;2023-05-10T06:43:21;13.30;99.90
26270;DHT22;15937;50.612;6.656;2023-05-10T06:47:23;13.30;99.90
26270;DHT22;15937;50.612;6.656;2023-05-10T06:51:29;13.30;99.90
26270;DHT22;15937;50.612;6.656;2023-05-10T06:55:45;13.30;99.90
26270;DHT22;15937;50.612;6.656;2023-05-10T06:59:49;13.40;99.90
26270;DHT22;15937;50.612;6.656;2023-05-10T07:03:55;13.60;99.90
26270;DHT22;15937;50.612;6.656;2023-05-10T07:08:00;13.40;99.90
26270;DHT22;15937;50.612;6.656;2023-05-10T07:12:14;13.50;99.90
26270;DHT22;15937;50.612;6.656;2023-05-10T07:16:19;13.60;99.90
26270;DHT22;15937;50.612;6.656;2023-05-10T07:20:30;13.70;99.90
26270;DHT22;15937;50.612;6.656;2023-05-10T07:24:52;13.70;99.90
26270;DHT22;15937;50.612;6.656;2023-05-10T07:29:04;13.70;99.90
26270;DHT22;15937;50.612;6.656;2023-05-10T07:33:15;13.80;99.90
26270;DHT22;15937;50.612;6.656;2023-05-10T07:37:24;13.80;99.90
26270;DHT22;15937;50.612;6.656;2023-05-10T07:41:34;13.80;99.90
26270;DHT22;15937;50.612;6.656;2023-05-10T07:46:16;13.70;99.90
26270;DHT22;15937;50.612;6.656;2023-05-10T07:50:21;13.60;99.90
26270;DHT22;15937;50.612;6.656;2023-05-10T07:54:28;13.40;99.90
26270;DHT22;15937;50.612;6.656;2023-05-10T07:58:44;13.50;99.90
26270;DHT22;15937;50.612;6.656;2023-05-10T08:03:00;13.40;99.90
26270;DHT22;15937;50.612;6.656;2023-05-10T08:07:08;12.90;99.90
26270;DHT22;15937;50.612;6.656;2023-05-10T08:11:23;12.90;99.90
26270;DHT22;15937;50.612;6.656;2023-05-10T08:15:28;13.20;99.90
26270;DHT22;15937;50.612;6.656;2023-05-10T08:19:42;13.10;99.90
26270;DHT22;15937;50.612;6.656;2023-05-10T08:24:01;13.50;99.90
26270;DHT22;15937;50.612;6.656;2023-05-10T08:28:03;13.60;99.90
26270;DHT22;15937;50.612;6.656;2023-05-10T08:32:05;13.60;99.90
26270;DHT22;15937;50.612;6.656;2023-05-10T08:36:20;13.70;99.90
26270;DHT22;15937;50.612;6.656;2023-05-10T08:40:33;13.50;99.90
26270;DHT22;15937;50.612;6.656;2023-05-10T08:44:48;13.60;99.90
26270;DHT22;15937;50.612;6.656;2023-05-10T08:49:00;13.50;99.90
26270;DHT22;15937;50.612;6.656;2023-05-10T08:53:26;13.70;99.90
26270;DHT22;15937;50.612;6.656;2023-05-10T08:57:39;13.80;99.90
26270;DHT22;15937;50.612;6.656;2023-05-10T09:01:57;13.80;99.90
26270;DHT22;15937;50.612;6.656;2023-05-10T09:06:06;13.90;99.90
26270;DHT22;15937;50.612;6.656;2023-05-10T09:14:45;13.90;99.90
26270;DHT22;15937;50.612;6.656;2023-05-10T09:18:54;13.90;99.90
26270;DHT22;15937;50.612;6.656;2023-05-10T09:23:10;14.00;99.90
26270;DHT22;15937;50.612;6.656;2023-05-10T09:27:26;14.10;99.90
26270;DHT22;15937;50.612;6.656;2023-05-10T09:31:53;13.90;99.90
26270;DHT22;15937;50.612;6.656;2023-05-10T09:36:07;14.10;99.90
26270;DHT22;15937;50.612;6.656;2023-05-10T09:40:35;14.10;99.90
26270;DHT22;15937;50.612;6.656;2023-05-10T09:44:40;14.00;99.90
26270;DHT22;15937;50.612;6.656;2023-05-10T09:49:20;14.10;99.90
26270;DHT22;15937;50.612;6.656;2023-05-10T09:53:30;14.40;99.90
26270;DHT22;15937;50.612;6.656;2023-05-10T09:57:47;14.70;99.90
26270;DHT22;15937;50.612;6.656;2023-05-10T10:02:01;15.00;99.90
26270;DHT22;15937;50.612;6.656;2023-05-10T10:06:24;14.80;99.90
26270;DHT22;15937;50.612;6.656;2023-05-10T10:10:38;14.80;99.90
26270;DHT22;15937;50.612;6.656;2023-05-10T10:14:43;14.70;99.90
26270;DHT22;15937;50.612;6.656;2023-05-10T10:18:46;14.90;99.90
26270;DHT22;15937;50.612;6.656;2023-05-10T10:22:56;15.20;99.90
26270;DHT22;15937;50.612;6.656;2023-05-10T10:27:32;15.10;99.90
26270;DHT22;15937;50.612;6.656;2023-05-10T10:36:30;15.30;99.90
26270;DHT22;15937;50.612;6.656;2023-05-10T10:45:30;15.60;99.90
26270;DHT22;15937;50.612;6.656;2023-05-10T10:49:44;16.00;99.90
26270;DHT22;15937;50.612;6.656;2023-05-10T10:53:51;15.60;99.90
26270;DHT22;15937;50.612;6.656;2023-05-10T10:57:58;15.70;99.90
26270;DHT22;15937;50.612;6.656;2023-05-10T11:02:06;15.40;99.90
26270;DHT22;15937;50.612;6.656;2023-05-10T11:06:08;15.70;99.90
26270;DHT22;15937;50.612;6.656;2023-05-10T11:10:11;15.50;99.90
26270;DHT22;15937;50.612;6.656;2023-05-10T11:14:21;15.50;99.90
26270;DHT22;15937;50.612;6.656;2023-05-10T11:18:27;15.60;99.90
26270;DHT22;15937;50.612;6.656;2023-05-10T11:22:49;15.60;99.90
26270;DHT22;15937;50.612;6.656;2023-05-10T11:26:57;15.90;99.90
26270;DHT22;15937;50.612;6.656;2023-05-10T11:30:59;16.00;99.90
26270;DHT22;15937;50.612;6.656;2023-05-10T11:35:07;15.80;99.90
26270;DHT22;15937;50.612;6.656;2023-05-10T11:39:12;15.20;99.90
26270;DHT22;15937;50.612;6.656;2023-05-10T11:43:13;15.60;99.90
26270;DHT22;15937;50.612;6.656;2023-05-10T11:47:15;15.50;99.90
26270;DHT22;15937;50.612;6.656;2023-05-10T11:51:24;15.70;99.90
26270;DHT22;15937;50.612;6.656;2023-05-10T11:55:26;15.70;99.90
26270;DHT22;15937;50.612;6.656;2023-05-10T11:59:28;15.90;99.90
26270;DHT22;15937;50.612;6.656;2023-05-10T12:03:30;15.60;99.90
26270;DHT22;15937;50.612;6.656;2023-05-10T12:07:33;15.80;99.90
26270;DHT22;15937;50.612;6.656;2023-05-10T12:11:38;16.10;99.90
26270;DHT22;15937;50.612;6.656;2023-05-10T12:15:45;16.00;99.90
26270;DHT22;15937;50.612;6.656;2023-05-10T12:19:47;16.00;99.90
26270;DHT22;15937;50.612;6.656;2023-05-10T12:23:51;16.20;99.90
26270;DHT22;15937;50.612;6.656;2023-05-10T12:28:02;15.70;99.90
26270;DHT22;15937;50.612;6.656;2023-05-10T12:32:04;16.00;99.90
26270;DHT22;15937;50.612;6.656;2023-05-10T12:36:06;15.90;99.90
26270;DHT22;15937;50.612;6.656;2023-05-10T12:40:09;16.20;99.90
26270;DHT22;15937;50.612;6.656;2023-05-10T12:44:12;16.00;99.90
26270;DHT22;15937;50.612;6.656;2023-05-10T12:48:14;15.60;99.90
26270;DHT22;15937;50.612;6.656;2023-05-10T12:52:19;16.20;99.90
26270;DHT22;15937;50.612;6.656;2023-05-10T12:56:21;16.10;99.90
26270;DHT22;15937;50.612;6.656;2023-05-10T13:00:23;16.30;99.90
26270;DHT22;15937;50.612;6.656;2023-05-10T13:04:25;16.10;99.90
26270;DHT22;15937;50.612;6.656;2023-05-10T13:08:27;16.20;99.90
26270;DHT22;15937;50.612;6.656;2023-05-10T13:12:31;16.40;99.90
26270;DHT22;15937;50.612;6.656;2023-05-10T13:16:35;16.60;99.90
26270;DHT22;15937;50.612;6.656;2023-05-10T13:20:37;16.30;99.90
26270;DHT22;15937;50.612;6.656;2023-05-10T13:24:39;16.70;99.90
26270;DHT22;15937;50.612;6.656;2023-05-10T13:28:41;16.90;99.90
26270;DHT22;15937;50.612;6.656;2023-05-10T13:32:42;16.70;99.90
26270;DHT22;15937;50.612;6.656;2023-05-10T13:36:44;16.50;99.90
26270;DHT22;15937;50.612;6.656;2023-05-10T13:40:46;15.80;99.90
26270;DHT22;15937;50.612;6.656;2023-05-10T13:44:48;16.00;99.90
26270;DHT22;15937;50.612;6.656;2023-05-10T13:48:49;16.00;99.90
26270;DHT22;15937;50.612;6.656;2023-05-10T13:52:51;15.80;99.90
26270;DHT22;15937;50.612;6.656;2023-05-10T13:56:53;15.60;99.90
26270;DHT22;15937;50.612;6.656;2023-05-10T14:00:55;15.80;99.90
26270;DHT22;15937;50.612;6.656;2023-05-10T14:04:57;15.80;99.90
26270;DHT22;15937;50.612;6.656;2023-05-10T14:08:59;15.90;99.90
26270;DHT22;15937;50.612;6.656;2023-05-10T14:13:00;16.30;99.90
26270;DHT22;15937;50.612;6.656;2023-05-10T14:17:02;16.40;99.90
26270;DHT22;15937;50.612;6.656;2023-05-10T14:21:04;16.00;99.90
26270;DHT22;15937;50.612;6.656;2023-05-10T14:25:06;15.60;99.90
26270;DHT22;15937;50.612;6.656;2023-05-10T14:29:08;15.40;99.90
26270;DHT22;15937;50.612;6.656;2023-05-10T14:33:12;15.00;99.90
26270;DHT22;15937;50.612;6.656;2023-05-10T14:37:14;15.10;99.90
26270;DHT22;15937;50.612;6.656;2023-05-10T14:41:17;15.00;99.90
26270;DHT22;15937;50.612;6.656;2023-05-10T14:45:19;15.00;99.90
26270;DHT22;15937;50.612;6.656;2023-05-10T14:49:22;15.10;99.90
26270;DHT22;15937;50.612;6.656;2023-05-10T14:53:26;15.30;99.90
26270;DHT22;15937;50.612;6.656;2023-05-10T14:57:27;14.90;99.90
26270;DHT22;15937;50.612;6.656;2023-05-10T15:01:31;15.30;99.90
26270;DHT22;15937;50.612;6.656;2023-05-10T15:05:38;15.00;99.90
26270;DHT22;15937;50.612;6.656;2023-05-10T15:09:49;15.10;99.90
26270;DHT22;15937;50.612;6.656;2023-05-10T15:13:51;15.40;99.90
26270;DHT22;15937;50.612;6.656;2023-05-10T15:17:53;15.80;99.90
26270;DHT22;15937;50.612;6.656;2023-05-10T15:21:55;15.50;99.90
26270;DHT22;15937;50.612;6.656;2023-05-10T15:25:57;15.90;99.90
26270;DHT22;15937;50.612;6.656;2023-05-10T15:29:59;16.20;99.90
26270;DHT22;15937;50.612;6.656;2023-05-10T15:34:01;15.80;99.90
26270;DHT22;15937;50.612;6.656;2023-05-10T15:38:03;16.00;99.90
26270;DHT22;15937;50.612;6.656;2023-05-10T15:42:05;15.70;99.90
26270;DHT22;15937;50.612;6.656;2023-05-10T15:46:06;15.70;99.90
26270;DHT22;15937;50.612;6.656;2023-05-10T15:50:09;15.50;99.90
26270;DHT22;15937;50.612;6.656;2023-05-10T15:54:11;15.40;99.90
26270;DHT22;15937;50.612;6.656;2023-05-10T15:58:13;15.20;99.90
26270;DHT22;15937;50.612;6.656;2023-05-10T16:02:15;15.00;99.90
26270;DHT22;15937;50.612;6.656;2023-05-10T16:06:18;14.70;99.90
26270;DHT22;15937;50.612;6.656;2023-05-10T16:10:19;14.40;99.90
26270;DHT22;15937;50.612;6.656;2023-05-10T16:14:22;14.50;99.90
26270;DHT22;15937;50.612;6.656;2023-05-10T16:18:25;14.70;99.90
26270;DHT22;15937;50.612;6.656;2023-05-10T16:22:27;14.40;99.90
26270;DHT22;15937;50.612;6.656;2023-05-10T16:26:29;14.30;99.90
26270;DHT22;15937;50.612;6.656;2023-05-10T16:30:31;14.50;99.90
26270;DHT22;15937;50.612;6.656;2023-05-10T16:34:33;14.20;99.90
26270;DHT22;15937;50.612;6.656;2023-05-10T16:38:35;14.00;99.90
26270;DHT22;15937;50.612;6.656;2023-05-10T16:42:36;13.90;99.90
26270;DHT22;15937;50.612;6.656;2023-05-10T16:46:38;13.90;99.90
26270;DHT22;15937;50.612;6.656;2023-05-10T16:50:42;13.90;99.90
26270;DHT22;15937;50.612;6.656;2023-05-10T16:54:44;14.00;99.90
26270;DHT22;15937;50.612;6.656;2023-05-10T16:58:50;13.70;99.90
26270;DHT22;15937;50.612;6.656;2023-05-10T17:02:52;13.80;99.90
26270;DHT22;15937;50.612;6.656;2023-05-10T17:06:55;13.50;99.90
26270;DHT22;15937;50.612;6.656;2023-05-10T17:11:00;13.70;99.90
26270;DHT22;15937;50.612;6.656;2023-05-10T17:15:03;13.50;99.90
26270;DHT22;15937;50.612;6.656;2023-05-10T17:19:05;13.50;99.90
26270;DHT22;15937;50.612;6.656;2023-05-10T17:23:07;13.40;99.90
26270;DHT22;15937;50.612;6.656;2023-05-10T17:27:09;13.60;99.90
26270;DHT22;15937;50.612;6.656;2023-05-10T17:31:10;13.70;99.90
26270;DHT22;15937;50.612;6.656;2023-05-10T17:35:12;13.60;99.90
26270;DHT22;15937;50.612;6.656;2023-05-10T17:39:14;13.60;99.90
26270;DHT22;15937;50.612;6.656;2023-05-10T17:43:16;13.60;99.90
26270;DHT22;15937;50.612;6.656;2023-05-10T17:47:18;13.40;99.90
26270;DHT22;15937;50.612;6.656;2023-05-10T17:51:19;13.50;99.90
26270;DHT22;15937;50.612;6.656;2023-05-10T17:55:21;13.40;99.90
26270;DHT22;15937;50.612;6.656;2023-05-10T17:59:23;12.90;99.90
26270;DHT22;15937;50.612;6.656;2023-05-10T18:03:25;13.00;99.90
26270;DHT22;15937;50.612;6.656;2023-05-10T18:07:26;12.90;99.90
26270;DHT22;15937;50.612;6.656;2023-05-10T18:11:36;12.70;99.90
26270;DHT22;15937;50.612;6.656;2023-05-10T18:15:39;12.40;99.90
26270;DHT22;15937;50.612;6.656;2023-05-10T18:19:41;12.60;99.90
26270;DHT22;15937;50.612;6.656;2023-05-10T18:23:43;12.40;99.90
26270;DHT22;15937;50.612;6.656;2023-05-10T18:27:45;12.60;99.90
26270;DHT22;15937;50.612;6.656;2023-05-10T18:31:47;12.60;99.90
26270;DHT22;15937;50.612;6.656;2023-05-10T18:35:48;12.60;99.90
26270;DHT22;15937;50.612;6.656;2023-05-10T18:39:50;12.70;99.90
26270;DHT22;15937;50.612;6.656;2023-05-10T18:43:52;12.90;99.90
26270;DHT22;15937;50.612;6.656;2023-05-10T18:47:54;12.80;99.90
26270;DHT22;15937;50.612;6.656;2023-05-10T18:51:56;12.90;99.90
26270;DHT22;15937;50.612;6.656;2023-05-10T18:55:58;13.00;99.90
26270;DHT22;15937;50.612;6.656;2023-05-10T19:00:00;13.00;99.90
26270;DHT22;15937;50.612;6.656;2023-05-10T19:04:02;13.10;99.90
26270;DHT22;15937;50.612;6.656;2023-05-10T19:08:03;13.10;99.90
26270;DHT22;15937;50.612;6.656;2023-05-10T19:12:05;12.70;99.90
26270;DHT22;15937;50.612;6.656;2023-05-10T19:16:16;12.90;99.90
26270;DHT22;15937;50.612;6.656;2023-05-10T19:20:23;12.60;99.90
26270;DHT22;15937;50.612;6.656;2023-05-10T19:24:25;12.60;99.90
26270;DHT22;15937;50.612;6.656;2023-05-10T19:28:27;12.30;99.90
26270;DHT22;15937;50.612;6.656;2023-05-10T19:32:29;12.30;99.90
26270;DHT22;15937;50.612;6.656;2023-05-10T19:36:31;12.20;99.90
26270;DHT22;15937;50.612;6.656;2023-05-10T19:40:33;12.10;99.90
26270;DHT22;15937;50.612;6.656;2023-05-10T19:44:34;12.50;99.90
26270;DHT22;15937;50.612;6.656;2023-05-10T19:48:36;12.40;99.90
26270;DHT22;15937;50.612;6.656;2023-05-10T19:52:38;12.60;99.90
26270;DHT22;15937;50.612;6.656;2023-05-10T19:56:40;12.50;99.90
26270;DHT22;15937;50.612;6.656;2023-05-10T20:00:42;12.30;99.90
26270;DHT22;15937;50.612;6.656;2023-05-10T20:04:44;12.20;99.90
26270;DHT22;15937;50.612;6.656;2023-05-10T20:08:45;12.40;99.90
26270;DHT22;15937;50.612;6.656;2023-05-10T20:12:48;12.60;99.90
26270;DHT22;15937;50.612;6.656;2023-05-10T20:16:53;12.50;99.90
26270;DHT22;15937;50.612;6.656;2023-05-10T20:20:57;12.50;99.90
26270;DHT22;15937;50.612;6.656;2023-05-10T20:24:59;12.60;99.90
26270;DHT22;15937;50.612;6.656;2023-05-10T20:29:01;12.60;99.90
26270;DHT22;15937;50.612;6.656;2023-05-10T20:33:03;12.70;99.90
26270;DHT22;15937;50.612;6.656;2023-05-10T20:37:05;12.70;99.90
26270;DHT22;15937;50.612;6.656;2023-05-10T20:41:07;12.80;99.90
26270;DHT22;15937;50.612;6.656;2023-05-10T20:45:09;12.80;99.90
26270;DHT22;15937;50.612;6.656;2023-05-10T20:49:10;12.80;99.90
26270;DHT22;15937;50.612;6.656;2023-05-10T20:53:12;12.70;99.90
26270;DHT22;15937;50.612;6.656;2023-05-10T20:57:15;12.70;99.90
26270;DHT22;15937;50.612;6.656;2023-05-10T21:01:16;12.80;99.90
26270;DHT22;15937;50.612;6.656;2023-05-10T21:05:18;12.70;99.90
26270;DHT22;15937;50.612;6.656;2023-05-10T21:09:20;12.70;99.90
26270;DHT22;15937;50.612;6.656;2023-05-10T21:13:22;12.20;99.90
26270;DHT22;15937;50.612;6.656;2023-05-10T21:17:23;12.00;99.90
26270;DHT22;15937;50.612;6.656;2023-05-10T21:21:25;12.00;99.90
26270;DHT22;15937;50.612;6.656;2023-05-10T21:25:27;12.00;99.90
26270;DHT22;15937;50.612;6.656;2023-05-10T21:29:29;11.80;99.90
26270;DHT22;15937;50.612;6.656;2023-05-10T21:33:30;11.90;99.90
26270;DHT22;15937;50.612;6.656;2023-05-10T21:37:32;11.90;99.90
26270;DHT22;15937;50.612;6.656;2023-05-10T21:41:34;11.90;99.90
26270;DHT22;15937;50.612;6.656;2023-05-10T21:45:36;11.80;99.90
26270;DHT22;15937;50.612;6.656;2023-05-10T21:49:38;11.60;99.90
26270;DHT22;15937;50.612;6.656;2023-05-10T21:53:39;11.50;99.90
26270;DHT22;15937;50.612;6.656;2023-05-10T21:57:41;11.20;99.90
26270;DHT22;15937;50.612;6.656;2023-05-10T22:01:43;11.10;99.90
26270;DHT22;15937;50.612;6.656;2023-05-10T22:05:44;11.10;99.90
26270;DHT22;15937;50.612;6.656;2023-05-10T22:09:46;11.10;99.90
26270;DHT22;15937;50.612;6.656;2023-05-10T22:13:48;11.00;99.90
26270;DHT22;15937;50.612;6.656;2023-05-10T22:17:50;11.00;99.90
26270;DHT22;15937;50.612;6.656;2023-05-10T22:21:52;11.00;99.90
26270;DHT22;15937;50.612;6.656;2023-05-10T22:26:00;10.90;99.90
26270;DHT22;15937;50.612;6.656;2023-05-10T22:30:02;10.90;99.90
26270;DHT22;15937;50.612;6.656;2023-05-10T22:34:04;10.90;99.90
26270;DHT22;15937;50.612;6.656;2023-05-10T22:38:06;10.90;99.90
26270;DHT22;15937;50.612;6.656;2023-05-10T22:42:08;10.80;99.90
26270;DHT22;15937;50.612;6.656;2023-05-10T22:46:10;10.80;99.90
26270;DHT22;15937;50.612;6.656;2023-05-10T22:50:13;10.70;99.90
26270;DHT22;15937;50.612;6.656;2023-05-10T22:54:14;10.70;99.90
26270;DHT22;15937;50.612;6.656;2023-05-10T22:58:16;10.70;99.90
26270;DHT22;15937;50.612;6.656;2023-05-10T23:02:18;10.80;99.90
26270;DHT22;15937;50.612;6.656;2023-05-10T23:06:20;10.80;99.90
26270;DHT22;15937;50.612;6.656;2023-05-10T23:10:22;10.80;99.90
26270;DHT22;15937;50.612;6.656;2023-05-10T23:14:24;10.60;99.90
26270;DHT22;15937;50.612;6.656;2023-05-10T23:18:25;10.60;99.90
26270;DHT22;15937;50.612;6.656;2023-05-10T23:22:27;10.50;99.90
26270;DHT22;15937;50.612;6.656;2023-05-10T23:26:32;10.40;99.90
26270;DHT22;15937;50.612;6.656;2023-05-10T23:30:33;10.70;99.90
26270;DHT22;15937;50.612;6.656;2023-05-10T23:34:35;10.70;99.90
26270;DHT22;15937;50.612;6.656;2023-05-10T23:38:37;10.60;99.90
26270;DHT22;15937;50.612;6.656;2023-05-10T23:42:39;10.60;99.90
26270;DHT22;15937;50.612;6.656;2023-05-10T23:46:40;10.70;99.90
26270;DHT22;15937;50.612;6.656;2023-05-10T23:50:45;10.60;99.90
26270;DHT22;15937;50.612;6.656;2023-05-10T23:54:47;10.70;99.90
26270;DHT22;15937;50.612;6.656;2023-05-10T23:58:48;10.70;99.90
